sensor_id;sensor_type;location;lat;lon;timestamp;P1;durP1;ratioP1;P2;durP2;ratioP2
80278;SDS011;70683;52.492;13.416;2023-07-22T00:00:00;6.65;;;4.95;;
80278;SDS011;70683;52.492;13.416;2023-07-22T00:02:27;8.48;;;5.10;;
80278;SDS011;70683;52.492;13.416;2023-07-22T00:04:56;5.72;;;4.65;;
80278;SDS011;70683;52.492;13.416;2023-07-22T00:07:23;6.95;;;5.37;;
80278;SDS011;70683;52.492;13.416;2023-07-22T00:09:49;8.08;;;5.30;;
80278;SDS011;70683;52.492;13.416;2023-07-22T00:12:16;6.42;;;5.50;;
80278;SDS011;70683;52.492;13.416;2023-07-22T00:14:42;8.50;;;5.47;;
80278;SDS011;70683;52.492;13.416;2023-07-22T00:17:09;6.62;;;5.62;;
80278;SDS011;70683;52.492;13.416;2023-07-22T00:19:36;6.33;;;5.10;;
80278;SDS011;70683;52.492;13.416;2023-07-22T00:22:03;8.30;;;5.47;;
80278;SDS011;70683;52.492;13.416;2023-07-22T00:24:29;10.05;;;5.60;;
80278;SDS011;70683;52.492;13.416;2023-07-22T00:26:56;7.83;;;5.25;;
80278;SDS011;70683;52.492;13.416;2023-07-22T00:29:22;7.15;;;4.47;;
80278;SDS011;70683;52.492;13.416;2023-07-22T00:31:50;5.87;;;4.78;;
80278;SDS011;70683;52.492;13.416;2023-07-22T00:34:16;7.12;;;4.70;;
80278;SDS011;70683;52.492;13.416;2023-07-22T00:36:43;7.03;;;5.45;;
80278;SDS011;70683;52.492;13.416;2023-07-22T00:39:10;8.43;;;5.33;;
80278;SDS011;70683;52.492;13.416;2023-07-22T00:41:39;7.75;;;5.05;;
80278;SDS011;70683;52.492;13.416;2023-07-22T00:44:07;6.58;;;4.92;;
80278;SDS011;70683;52.492;13.416;2023-07-22T00:46:34;9.53;;;4.70;;
80278;SDS011;70683;52.492;13.416;2023-07-22T00:49:01;8.80;;;4.30;;
80278;SDS011;70683;52.492;13.416;2023-07-22T00:51:28;7.00;;;4.80;;
80278;SDS011;70683;52.492;13.416;2023-07-22T00:53:54;5.50;;;4.72;;
80278;SDS011;70683;52.492;13.416;2023-07-22T00:56:22;10.28;;;5.17;;
80278;SDS011;70683;52.492;13.416;2023-07-22T00:58:48;5.50;;;4.65;;
80278;SDS011;70683;52.492;13.416;2023-07-22T01:01:15;6.97;;;4.72;;
80278;SDS011;70683;52.492;13.416;2023-07-22T01:03:42;5.90;;;4.83;;
80278;SDS011;70683;52.492;13.416;2023-07-22T01:06:12;6.87;;;4.95;;
80278;SDS011;70683;52.492;13.416;2023-07-22T01:08:40;6.00;;;4.55;;
80278;SDS011;70683;52.492;13.416;2023-07-22T01:11:07;6.20;;;5.03;;
80278;SDS011;70683;52.492;13.416;2023-07-22T01:13:33;6.33;;;4.75;;
80278;SDS011;70683;52.492;13.416;2023-07-22T01:16:00;7.00;;;5.75;;
80278;SDS011;70683;52.492;13.416;2023-07-22T01:18:27;7.53;;;4.90;;
80278;SDS011;70683;52.492;13.416;2023-07-22T01:20:54;5.65;;;5.12;;
80278;SDS011;70683;52.492;13.416;2023-07-22T01:23:20;5.67;;;5.12;;
80278;SDS011;70683;52.492;13.416;2023-07-22T01:25:47;6.75;;;5.00;;
80278;SDS011;70683;52.492;13.416;2023-07-22T01:28:14;12.40;;;9.55;;
80278;SDS011;70683;52.492;13.416;2023-07-22T01:30:41;10.58;;;5.95;;
80278;SDS011;70683;52.492;13.416;2023-07-22T01:33:07;8.35;;;6.50;;
80278;SDS011;70683;52.492;13.416;2023-07-22T01:35:34;11.22;;;5.40;;
80278;SDS011;70683;52.492;13.416;2023-07-22T01:38:01;7.47;;;5.60;;
80278;SDS011;70683;52.492;13.416;2023-07-22T01:40:27;9.68;;;6.05;;
80278;SDS011;70683;52.492;13.416;2023-07-22T01:42:54;7.95;;;5.33;;
80278;SDS011;70683;52.492;13.416;2023-07-22T01:45:20;8.53;;;5.65;;
80278;SDS011;70683;52.492;13.416;2023-07-22T01:47:47;5.45;;;4.87;;
80278;SDS011;70683;52.492;13.416;2023-07-22T01:50:14;6.28;;;5.33;;
80278;SDS011;70683;52.492;13.416;2023-07-22T01:52:41;9.18;;;5.87;;
80278;SDS011;70683;52.492;13.416;2023-07-22T01:55:08;8.65;;;5.30;;
80278;SDS011;70683;52.492;13.416;2023-07-22T01:57:36;9.03;;;5.47;;
80278;SDS011;70683;52.492;13.416;2023-07-22T02:00:03;7.30;;;5.62;;
80278;SDS011;70683;52.492;13.416;2023-07-22T02:02:30;6.47;;;5.25;;
80278;SDS011;70683;52.492;13.416;2023-07-22T02:04:57;7.87;;;5.10;;
80278;SDS011;70683;52.492;13.416;2023-07-22T02:07:24;9.43;;;5.37;;
80278;SDS011;70683;52.492;13.416;2023-07-22T02:09:52;8.10;;;5.33;;
80278;SDS011;70683;52.492;13.416;2023-07-22T02:12:19;8.28;;;5.75;;
80278;SDS011;70683;52.492;13.416;2023-07-22T02:14:46;8.68;;;5.47;;
80278;SDS011;70683;52.492;13.416;2023-07-22T02:17:12;7.47;;;5.75;;
80278;SDS011;70683;52.492;13.416;2023-07-22T02:19:39;8.30;;;5.58;;
80278;SDS011;70683;52.492;13.416;2023-07-22T02:22:06;12.70;;;5.28;;
80278;SDS011;70683;52.492;13.416;2023-07-22T02:24:32;7.70;;;5.05;;
80278;SDS011;70683;52.492;13.416;2023-07-22T02:26:59;9.50;;;5.30;;
80278;SDS011;70683;52.492;13.416;2023-07-22T02:29:26;6.20;;;5.20;;
80278;SDS011;70683;52.492;13.416;2023-07-22T02:31:53;6.55;;;4.42;;
80278;SDS011;70683;52.492;13.416;2023-07-22T02:34:19;7.42;;;4.87;;
80278;SDS011;70683;52.492;13.416;2023-07-22T02:36:47;11.35;;;5.37;;
80278;SDS011;70683;52.492;13.416;2023-07-22T02:39:14;7.37;;;4.90;;
80278;SDS011;70683;52.492;13.416;2023-07-22T02:41:41;6.30;;;4.00;;
80278;SDS011;70683;52.492;13.416;2023-07-22T02:44:07;6.80;;;4.70;;
80278;SDS011;70683;52.492;13.416;2023-07-22T02:46:34;6.72;;;4.85;;
80278;SDS011;70683;52.492;13.416;2023-07-22T02:49:00;7.87;;;4.65;;
80278;SDS011;70683;52.492;13.416;2023-07-22T02:51:27;7.08;;;4.35;;
80278;SDS011;70683;52.492;13.416;2023-07-22T02:53:53;4.90;;;4.22;;
80278;SDS011;70683;52.492;13.416;2023-07-22T02:56:20;9.05;;;4.37;;
80278;SDS011;70683;52.492;13.416;2023-07-22T02:58:47;7.55;;;4.50;;
80278;SDS011;70683;52.492;13.416;2023-07-22T03:01:13;8.35;;;4.20;;
80278;SDS011;70683;52.492;13.416;2023-07-22T03:03:40;6.70;;;4.22;;
80278;SDS011;70683;52.492;13.416;2023-07-22T03:06:06;5.20;;;3.92;;
80278;SDS011;70683;52.492;13.416;2023-07-22T03:08:35;12.30;;;4.75;;
80278;SDS011;70683;52.492;13.416;2023-07-22T03:11:02;7.67;;;4.60;;
80278;SDS011;70683;52.492;13.416;2023-07-22T03:13:29;6.62;;;4.25;;
80278;SDS011;70683;52.492;13.416;2023-07-22T03:15:56;13.98;;;5.37;;
80278;SDS011;70683;52.492;13.416;2023-07-22T03:18:24;7.08;;;4.55;;
80278;SDS011;70683;52.492;13.416;2023-07-22T03:20:50;6.45;;;4.55;;
80278;SDS011;70683;52.492;13.416;2023-07-22T03:23:17;5.97;;;4.22;;
80278;SDS011;70683;52.492;13.416;2023-07-22T03:25:45;6.53;;;4.70;;
80278;SDS011;70683;52.492;13.416;2023-07-22T03:28:11;5.15;;;4.35;;
80278;SDS011;70683;52.492;13.416;2023-07-22T03:30:38;8.98;;;4.50;;
80278;SDS011;70683;52.492;13.416;2023-07-22T03:33:05;6.75;;;5.17;;
80278;SDS011;70683;52.492;13.416;2023-07-22T03:35:32;6.78;;;4.03;;
80278;SDS011;70683;52.492;13.416;2023-07-22T03:38:00;6.92;;;4.08;;
80278;SDS011;70683;52.492;13.416;2023-07-22T03:40:26;9.85;;;4.42;;
80278;SDS011;70683;52.492;13.416;2023-07-22T03:42:56;6.42;;;4.47;;
80278;SDS011;70683;52.492;13.416;2023-07-22T03:45:24;8.43;;;4.03;;
80278;SDS011;70683;52.492;13.416;2023-07-22T03:47:51;6.05;;;3.80;;
80278;SDS011;70683;52.492;13.416;2023-07-22T03:50:21;6.50;;;4.30;;
80278;SDS011;70683;52.492;13.416;2023-07-22T03:52:48;7.95;;;4.40;;
80278;SDS011;70683;52.492;13.416;2023-07-22T03:55:15;6.22;;;4.33;;
80278;SDS011;70683;52.492;13.416;2023-07-22T03:57:41;5.53;;;4.22;;
80278;SDS011;70683;52.492;13.416;2023-07-22T04:00:08;6.40;;;3.75;;
80278;SDS011;70683;52.492;13.416;2023-07-22T04:02:36;7.03;;;4.50;;
80278;SDS011;70683;52.492;13.416;2023-07-22T04:05:03;7.67;;;4.67;;
80278;SDS011;70683;52.492;13.416;2023-07-22T04:07:30;8.68;;;3.83;;
80278;SDS011;70683;52.492;13.416;2023-07-22T04:09:56;7.35;;;3.33;;
80278;SDS011;70683;52.492;13.416;2023-07-22T04:12:23;7.65;;;3.40;;
80278;SDS011;70683;52.492;13.416;2023-07-22T04:14:50;8.25;;;3.87;;
80278;SDS011;70683;52.492;13.416;2023-07-22T04:17:16;8.05;;;3.35;;
80278;SDS011;70683;52.492;13.416;2023-07-22T04:19:43;5.83;;;3.20;;
80278;SDS011;70683;52.492;13.416;2023-07-22T04:22:09;7.55;;;3.20;;
80278;SDS011;70683;52.492;13.416;2023-07-22T04:24:36;6.20;;;3.45;;
80278;SDS011;70683;52.492;13.416;2023-07-22T04:27:03;6.90;;;3.20;;
80278;SDS011;70683;52.492;13.416;2023-07-22T04:29:30;8.95;;;3.22;;
80278;SDS011;70683;52.492;13.416;2023-07-22T04:31:57;6.17;;;2.72;;
80278;SDS011;70683;52.492;13.416;2023-07-22T04:34:27;6.28;;;3.52;;
80278;SDS011;70683;52.492;13.416;2023-07-22T04:36:54;5.33;;;3.22;;
80278;SDS011;70683;52.492;13.416;2023-07-22T04:39:21;3.72;;;3.05;;
80278;SDS011;70683;52.492;13.416;2023-07-22T04:41:48;6.65;;;3.00;;
80278;SDS011;70683;52.492;13.416;2023-07-22T04:44:15;4.67;;;3.27;;
80278;SDS011;70683;52.492;13.416;2023-07-22T04:46:43;4.17;;;3.00;;
80278;SDS011;70683;52.492;13.416;2023-07-22T04:49:09;7.35;;;3.72;;
80278;SDS011;70683;52.492;13.416;2023-07-22T04:51:36;7.47;;;3.80;;
80278;SDS011;70683;52.492;13.416;2023-07-22T04:54:03;4.35;;;3.22;;
80278;SDS011;70683;52.492;13.416;2023-07-22T04:56:30;5.62;;;3.37;;
80278;SDS011;70683;52.492;13.416;2023-07-22T04:58:56;5.87;;;3.27;;
80278;SDS011;70683;52.492;13.416;2023-07-22T05:01:23;8.15;;;4.03;;
80278;SDS011;70683;52.492;13.416;2023-07-22T05:03:50;5.67;;;3.45;;
80278;SDS011;70683;52.492;13.416;2023-07-22T05:06:18;7.90;;;3.85;;
80278;SDS011;70683;52.492;13.416;2023-07-22T05:08:45;6.95;;;3.60;;
80278;SDS011;70683;52.492;13.416;2023-07-22T05:11:11;9.10;;;4.17;;
80278;SDS011;70683;52.492;13.416;2023-07-22T05:13:38;5.95;;;4.20;;
80278;SDS011;70683;52.492;13.416;2023-07-22T05:16:05;7.15;;;4.40;;
80278;SDS011;70683;52.492;13.416;2023-07-22T05:18:31;8.85;;;4.70;;
80278;SDS011;70683;52.492;13.416;2023-07-22T05:20:58;9.88;;;4.70;;
80278;SDS011;70683;52.492;13.416;2023-07-22T05:23:25;8.73;;;5.47;;
80278;SDS011;70683;52.492;13.416;2023-07-22T05:25:52;7.55;;;5.10;;
80278;SDS011;70683;52.492;13.416;2023-07-22T05:28:19;8.80;;;5.05;;
80278;SDS011;70683;52.492;13.416;2023-07-22T05:30:46;6.37;;;5.05;;
80278;SDS011;70683;52.492;13.416;2023-07-22T05:33:13;8.78;;;5.10;;
80278;SDS011;70683;52.492;13.416;2023-07-22T05:35:40;11.03;;;5.10;;
80278;SDS011;70683;52.492;13.416;2023-07-22T05:38:07;6.78;;;5.40;;
80278;SDS011;70683;52.492;13.416;2023-07-22T05:40:33;10.40;;;5.87;;
80278;SDS011;70683;52.492;13.416;2023-07-22T05:43:00;8.53;;;5.40;;
80278;SDS011;70683;52.492;13.416;2023-07-22T05:45:27;10.10;;;5.35;;
80278;SDS011;70683;52.492;13.416;2023-07-22T05:47:54;9.48;;;5.97;;
80278;SDS011;70683;52.492;13.416;2023-07-22T05:50:20;7.72;;;5.65;;
80278;SDS011;70683;52.492;13.416;2023-07-22T05:52:47;11.03;;;6.45;;
80278;SDS011;70683;52.492;13.416;2023-07-22T05:55:14;11.35;;;6.17;;
80278;SDS011;70683;52.492;13.416;2023-07-22T05:57:41;9.98;;;6.03;;
80278;SDS011;70683;52.492;13.416;2023-07-22T06:00:08;8.10;;;5.83;;
80278;SDS011;70683;52.492;13.416;2023-07-22T06:02:35;9.53;;;5.67;;
80278;SDS011;70683;52.492;13.416;2023-07-22T06:05:02;8.85;;;5.60;;
80278;SDS011;70683;52.492;13.416;2023-07-22T06:07:29;10.93;;;5.87;;
80278;SDS011;70683;52.492;13.416;2023-07-22T06:09:56;9.90;;;6.40;;
80278;SDS011;70683;52.492;13.416;2023-07-22T06:12:22;8.43;;;6.35;;
80278;SDS011;70683;52.492;13.416;2023-07-22T06:14:49;10.82;;;6.35;;
80278;SDS011;70683;52.492;13.416;2023-07-22T06:17:16;9.58;;;6.25;;
80278;SDS011;70683;52.492;13.416;2023-07-22T06:19:42;11.85;;;6.22;;
80278;SDS011;70683;52.492;13.416;2023-07-22T06:22:09;14.68;;;6.30;;
80278;SDS011;70683;52.492;13.416;2023-07-22T06:24:35;8.63;;;5.40;;
80278;SDS011;70683;52.492;13.416;2023-07-22T06:27:02;10.93;;;6.10;;
80278;SDS011;70683;52.492;13.416;2023-07-22T06:29:29;10.65;;;6.92;;
80278;SDS011;70683;52.492;13.416;2023-07-22T06:31:56;10.70;;;5.87;;
80278;SDS011;70683;52.492;13.416;2023-07-22T06:34:23;9.53;;;5.62;;
80278;SDS011;70683;52.492;13.416;2023-07-22T06:36:49;8.95;;;5.03;;
80278;SDS011;70683;52.492;13.416;2023-07-22T06:39:16;10.43;;;5.15;;
80278;SDS011;70683;52.492;13.416;2023-07-22T06:41:42;8.08;;;5.05;;
80278;SDS011;70683;52.492;13.416;2023-07-22T06:44:09;7.70;;;5.03;;
80278;SDS011;70683;52.492;13.416;2023-07-22T06:46:36;11.48;;;5.42;;
80278;SDS011;70683;52.492;13.416;2023-07-22T06:49:02;10.05;;;5.20;;
80278;SDS011;70683;52.492;13.416;2023-07-22T06:51:29;11.60;;;5.25;;
80278;SDS011;70683;52.492;13.416;2023-07-22T06:53:55;11.88;;;5.33;;
80278;SDS011;70683;52.492;13.416;2023-07-22T06:56:22;9.58;;;5.53;;
80278;SDS011;70683;52.492;13.416;2023-07-22T06:58:49;9.30;;;4.53;;
80278;SDS011;70683;52.492;13.416;2023-07-22T07:01:16;7.75;;;4.50;;
80278;SDS011;70683;52.492;13.416;2023-07-22T07:03:43;9.30;;;4.92;;
80278;SDS011;70683;52.492;13.416;2023-07-22T07:06:09;7.22;;;3.83;;
80278;SDS011;70683;52.492;13.416;2023-07-22T07:08:37;6.97;;;4.05;;
80278;SDS011;70683;52.492;13.416;2023-07-22T07:11:04;7.03;;;3.27;;
80278;SDS011;70683;52.492;13.416;2023-07-22T07:13:30;12.63;;;3.83;;
80278;SDS011;70683;52.492;13.416;2023-07-22T07:15:57;7.00;;;3.45;;
80278;SDS011;70683;52.492;13.416;2023-07-22T07:18:27;7.17;;;3.60;;
80278;SDS011;70683;52.492;13.416;2023-07-22T07:20:54;8.88;;;3.30;;
80278;SDS011;70683;52.492;13.416;2023-07-22T07:23:21;8.80;;;3.87;;
80278;SDS011;70683;52.492;13.416;2023-07-22T07:25:48;9.63;;;3.52;;
80278;SDS011;70683;52.492;13.416;2023-07-22T07:28:14;6.25;;;3.35;;
80278;SDS011;70683;52.492;13.416;2023-07-22T07:30:43;9.43;;;3.95;;
80278;SDS011;70683;52.492;13.416;2023-07-22T07:33:10;7.50;;;3.95;;
80278;SDS011;70683;52.492;13.416;2023-07-22T07:35:36;8.48;;;3.60;;
80278;SDS011;70683;52.492;13.416;2023-07-22T07:38:03;11.55;;;4.10;;
80278;SDS011;70683;52.492;13.416;2023-07-22T07:40:29;7.80;;;3.92;;
80278;SDS011;70683;52.492;13.416;2023-07-22T07:42:57;8.63;;;3.83;;
80278;SDS011;70683;52.492;13.416;2023-07-22T07:45:24;7.87;;;3.95;;
80278;SDS011;70683;52.492;13.416;2023-07-22T07:47:51;7.37;;;3.65;;
80278;SDS011;70683;52.492;13.416;2023-07-22T07:50:17;6.47;;;3.75;;
80278;SDS011;70683;52.492;13.416;2023-07-22T07:52:44;8.78;;;3.35;;
80278;SDS011;70683;52.492;13.416;2023-07-22T07:55:11;6.58;;;3.75;;
80278;SDS011;70683;52.492;13.416;2023-07-22T07:57:37;6.47;;;3.80;;
80278;SDS011;70683;52.492;13.416;2023-07-22T08:00:04;6.95;;;3.83;;
80278;SDS011;70683;52.492;13.416;2023-07-22T08:02:34;9.15;;;3.55;;
80278;SDS011;70683;52.492;13.416;2023-07-22T08:05:01;11.55;;;3.60;;
80278;SDS011;70683;52.492;13.416;2023-07-22T08:07:28;8.55;;;3.98;;
80278;SDS011;70683;52.492;13.416;2023-07-22T08:09:55;11.43;;;3.98;;
80278;SDS011;70683;52.492;13.416;2023-07-22T08:12:23;7.70;;;4.10;;
80278;SDS011;70683;52.492;13.416;2023-07-22T08:14:51;6.92;;;3.33;;
80278;SDS011;70683;52.492;13.416;2023-07-22T08:17:19;9.60;;;4.10;;
80278;SDS011;70683;52.492;13.416;2023-07-22T08:19:46;13.58;;;4.12;;
80278;SDS011;70683;52.492;13.416;2023-07-22T08:22:12;9.98;;;3.50;;
80278;SDS011;70683;52.492;13.416;2023-07-22T08:24:40;8.65;;;5.53;;
80278;SDS011;70683;52.492;13.416;2023-07-22T08:27:06;8.03;;;4.40;;
80278;SDS011;70683;52.492;13.416;2023-07-22T08:29:33;6.15;;;3.60;;
80278;SDS011;70683;52.492;13.416;2023-07-22T08:32:00;11.08;;;4.70;;
80278;SDS011;70683;52.492;13.416;2023-07-22T08:34:26;7.95;;;4.10;;
80278;SDS011;70683;52.492;13.416;2023-07-22T08:36:53;5.80;;;3.67;;
80278;SDS011;70683;52.492;13.416;2023-07-22T08:39:20;7.85;;;4.10;;
80278;SDS011;70683;52.492;13.416;2023-07-22T08:41:48;6.90;;;3.85;;
80278;SDS011;70683;52.492;13.416;2023-07-22T08:44:18;10.75;;;4.33;;
80278;SDS011;70683;52.492;13.416;2023-07-22T08:46:46;9.03;;;4.60;;
80278;SDS011;70683;52.492;13.416;2023-07-22T08:49:16;10.53;;;4.75;;
80278;SDS011;70683;52.492;13.416;2023-07-22T08:51:43;9.53;;;4.15;;
80278;SDS011;70683;52.492;13.416;2023-07-22T08:54:11;5.60;;;3.62;;
80278;SDS011;70683;52.492;13.416;2023-07-22T08:56:39;6.40;;;4.10;;
80278;SDS011;70683;52.492;13.416;2023-07-22T08:59:07;11.68;;;5.47;;
80278;SDS011;70683;52.492;13.416;2023-07-22T09:01:34;28.42;;;9.80;;
80278;SDS011;70683;52.492;13.416;2023-07-22T09:04:01;30.60;;;10.45;;
80278;SDS011;70683;52.492;13.416;2023-07-22T09:06:28;16.50;;;7.85;;
80278;SDS011;70683;52.492;13.416;2023-07-22T09:08:55;14.23;;;6.83;;
80278;SDS011;70683;52.492;13.416;2023-07-22T09:11:23;8.48;;;5.08;;
80278;SDS011;70683;52.492;13.416;2023-07-22T09:13:51;10.45;;;4.62;;
80278;SDS011;70683;52.492;13.416;2023-07-22T09:16:20;9.13;;;4.78;;
80278;SDS011;70683;52.492;13.416;2023-07-22T09:18:47;11.38;;;4.28;;
80278;SDS011;70683;52.492;13.416;2023-07-22T09:21:14;6.72;;;4.12;;
80278;SDS011;70683;52.492;13.416;2023-07-22T09:23:41;6.45;;;4.45;;
80278;SDS011;70683;52.492;13.416;2023-07-22T09:26:08;6.37;;;3.92;;
80278;SDS011;70683;52.492;13.416;2023-07-22T09:31:14;7.12;;;3.98;;
80278;SDS011;70683;52.492;13.416;2023-07-22T09:33:41;7.22;;;3.77;;
80278;SDS011;70683;52.492;13.416;2023-07-22T09:36:09;6.53;;;3.92;;
80278;SDS011;70683;52.492;13.416;2023-07-22T09:38:37;5.30;;;3.62;;
80278;SDS011;70683;52.492;13.416;2023-07-22T09:41:04;12.23;;;6.12;;
80278;SDS011;70683;52.492;13.416;2023-07-22T09:43:30;9.40;;;3.98;;
80278;SDS011;70683;52.492;13.416;2023-07-22T09:46:05;4.17;;;3.05;;
80278;SDS011;70683;52.492;13.416;2023-07-22T09:48:40;5.60;;;2.90;;
80278;SDS011;70683;52.492;13.416;2023-07-22T09:51:13;8.38;;;3.45;;
80278;SDS011;70683;52.492;13.416;2023-07-22T09:53:44;9.23;;;3.33;;
80278;SDS011;70683;52.492;13.416;2023-07-22T09:56:13;11.73;;;3.72;;
80278;SDS011;70683;52.492;13.416;2023-07-22T09:58:40;4.83;;;3.40;;
80278;SDS011;70683;52.492;13.416;2023-07-22T10:01:08;6.20;;;3.40;;
80278;SDS011;70683;52.492;13.416;2023-07-22T10:03:37;9.35;;;3.22;;
80278;SDS011;70683;52.492;13.416;2023-07-22T10:06:06;5.87;;;3.02;;
80278;SDS011;70683;52.492;13.416;2023-07-22T10:08:34;4.25;;;2.80;;
80278;SDS011;70683;52.492;13.416;2023-07-22T10:11:03;5.25;;;3.30;;
80278;SDS011;70683;52.492;13.416;2023-07-22T10:13:32;6.45;;;3.92;;
80278;SDS011;70683;52.492;13.416;2023-07-22T10:15:59;5.22;;;2.95;;
80278;SDS011;70683;52.492;13.416;2023-07-22T10:18:26;5.55;;;3.17;;
80278;SDS011;70683;52.492;13.416;2023-07-22T10:20:54;4.55;;;3.22;;
80278;SDS011;70683;52.492;13.416;2023-07-22T10:23:23;4.85;;;3.10;;
80278;SDS011;70683;52.492;13.416;2023-07-22T10:25:53;6.42;;;3.08;;
80278;SDS011;70683;52.492;13.416;2023-07-22T10:28:21;6.83;;;3.10;;
80278;SDS011;70683;52.492;13.416;2023-07-22T10:30:48;4.47;;;3.02;;
80278;SDS011;70683;52.492;13.416;2023-07-22T10:33:16;7.60;;;3.02;;
80278;SDS011;70683;52.492;13.416;2023-07-22T10:35:43;6.40;;;3.35;;
80278;SDS011;70683;52.492;13.416;2023-07-22T10:38:14;8.20;;;3.33;;
80278;SDS011;70683;52.492;13.416;2023-07-22T10:40:46;8.20;;;3.58;;
80278;SDS011;70683;52.492;13.416;2023-07-22T10:43:16;6.90;;;3.25;;
80278;SDS011;70683;52.492;13.416;2023-07-22T10:45:50;7.80;;;2.80;;
80278;SDS011;70683;52.492;13.416;2023-07-22T10:48:18;7.37;;;2.92;;
80278;SDS011;70683;52.492;13.416;2023-07-22T10:50:46;4.60;;;3.42;;
80278;SDS011;70683;52.492;13.416;2023-07-22T10:53:20;6.55;;;3.67;;
80278;SDS011;70683;52.492;13.416;2023-07-22T10:56:04;5.83;;;3.33;;
80278;SDS011;70683;52.492;13.416;2023-07-22T11:01:31;5.78;;;3.42;;
80278;SDS011;70683;52.492;13.416;2023-07-22T11:04:06;5.37;;;3.58;;
80278;SDS011;70683;52.492;13.416;2023-07-22T11:06:54;12.60;;;4.92;;
80278;SDS011;70683;52.492;13.416;2023-07-22T11:09:34;8.38;;;4.85;;
80278;SDS011;70683;52.492;13.416;2023-07-22T11:12:01;7.33;;;4.22;;
80278;SDS011;70683;52.492;13.416;2023-07-22T11:14:33;9.18;;;4.20;;
80278;SDS011;70683;52.492;13.416;2023-07-22T11:17:03;6.97;;;3.67;;
80278;SDS011;70683;52.492;13.416;2023-07-22T11:19:31;8.00;;;4.28;;
80278;SDS011;70683;52.492;13.416;2023-07-22T11:21:59;12.40;;;3.92;;
80278;SDS011;70683;52.492;13.416;2023-07-22T11:24:26;9.00;;;3.50;;
80278;SDS011;70683;52.492;13.416;2023-07-22T11:26:53;8.55;;;4.03;;
80278;SDS011;70683;52.492;13.416;2023-07-22T11:29:20;6.50;;;4.15;;
80278;SDS011;70683;52.492;13.416;2023-07-22T11:31:48;4.90;;;3.75;;
80278;SDS011;70683;52.492;13.416;2023-07-22T11:34:16;6.60;;;4.22;;
80278;SDS011;70683;52.492;13.416;2023-07-22T11:36:45;7.03;;;4.10;;
80278;SDS011;70683;52.492;13.416;2023-07-22T11:39:15;10.53;;;3.65;;
80278;SDS011;70683;52.492;13.416;2023-07-22T11:41:43;6.22;;;3.40;;
80278;SDS011;70683;52.492;13.416;2023-07-22T11:44:12;7.08;;;4.30;;
80278;SDS011;70683;52.492;13.416;2023-07-22T11:49:21;8.15;;;4.20;;
80278;SDS011;70683;52.492;13.416;2023-07-22T11:51:50;7.47;;;3.87;;
80278;SDS011;70683;52.492;13.416;2023-07-22T11:54:17;6.00;;;4.10;;
80278;SDS011;70683;52.492;13.416;2023-07-22T11:56:46;7.28;;;3.27;;
80278;SDS011;70683;52.492;13.416;2023-07-22T11:59:13;6.12;;;3.87;;
80278;SDS011;70683;52.492;13.416;2023-07-22T12:01:42;7.03;;;3.83;;
80278;SDS011;70683;52.492;13.416;2023-07-22T12:04:11;8.25;;;4.35;;
80278;SDS011;70683;52.492;13.416;2023-07-22T12:06:40;7.00;;;4.10;;
80278;SDS011;70683;52.492;13.416;2023-07-22T12:09:08;5.20;;;3.62;;
80278;SDS011;70683;52.492;13.416;2023-07-22T12:11:36;7.25;;;3.47;;
80278;SDS011;70683;52.492;13.416;2023-07-22T12:14:07;6.62;;;3.35;;
80278;SDS011;70683;52.492;13.416;2023-07-22T12:16:35;9.75;;;3.55;;
80278;SDS011;70683;52.492;13.416;2023-07-22T12:19:04;6.53;;;3.67;;
80278;SDS011;70683;52.492;13.416;2023-07-22T12:21:31;5.42;;;3.87;;
80278;SDS011;70683;52.492;13.416;2023-07-22T12:23:59;6.65;;;3.08;;
80278;SDS011;70683;52.492;13.416;2023-07-22T12:26:26;6.70;;;3.62;;
80278;SDS011;70683;52.492;13.416;2023-07-22T12:28:53;5.35;;;3.75;;
80278;SDS011;70683;52.492;13.416;2023-07-22T12:31:20;7.05;;;3.95;;
80278;SDS011;70683;52.492;13.416;2023-07-22T12:33:47;6.30;;;3.60;;
80278;SDS011;70683;52.492;13.416;2023-07-22T12:36:13;7.03;;;3.58;;
80278;SDS011;70683;52.492;13.416;2023-07-22T12:38:40;4.25;;;3.33;;
80278;SDS011;70683;52.492;13.416;2023-07-22T12:41:07;8.18;;;3.80;;
80278;SDS011;70683;52.492;13.416;2023-07-22T12:43:33;6.85;;;3.90;;
80278;SDS011;70683;52.492;13.416;2023-07-22T12:46:00;7.75;;;3.65;;
80278;SDS011;70683;52.492;13.416;2023-07-22T12:48:26;9.55;;;5.85;;
80278;SDS011;70683;52.492;13.416;2023-07-22T12:50:53;8.18;;;4.45;;
80278;SDS011;70683;52.492;13.416;2023-07-22T12:53:20;6.47;;;3.92;;
80278;SDS011;70683;52.492;13.416;2023-07-22T12:55:47;7.28;;;3.98;;
80278;SDS011;70683;52.492;13.416;2023-07-22T12:58:14;5.15;;;4.00;;
80278;SDS011;70683;52.492;13.416;2023-07-22T13:00:41;8.93;;;4.83;;
80278;SDS011;70683;52.492;13.416;2023-07-22T13:03:07;6.15;;;3.77;;
80278;SDS011;70683;52.492;13.416;2023-07-22T13:05:34;5.37;;;4.10;;
80278;SDS011;70683;52.492;13.416;2023-07-22T13:08:01;8.10;;;4.87;;
80278;SDS011;70683;52.492;13.416;2023-07-22T13:10:28;6.15;;;3.92;;
80278;SDS011;70683;52.492;13.416;2023-07-22T13:12:54;5.22;;;3.40;;
80278;SDS011;70683;52.492;13.416;2023-07-22T13:15:21;5.90;;;3.90;;
80278;SDS011;70683;52.492;13.416;2023-07-22T13:17:48;6.67;;;4.00;;
80278;SDS011;70683;52.492;13.416;2023-07-22T13:20:14;5.72;;;4.37;;
80278;SDS011;70683;52.492;13.416;2023-07-22T13:22:41;6.30;;;4.20;;
80278;SDS011;70683;52.492;13.416;2023-07-22T13:25:08;5.05;;;3.65;;
80278;SDS011;70683;52.492;13.416;2023-07-22T13:27:35;6.10;;;4.00;;
80278;SDS011;70683;52.492;13.416;2023-07-22T13:30:04;5.42;;;4.15;;
80278;SDS011;70683;52.492;13.416;2023-07-22T13:32:32;7.92;;;4.33;;
80278;SDS011;70683;52.492;13.416;2023-07-22T13:34:59;6.12;;;4.30;;
80278;SDS011;70683;52.492;13.416;2023-07-22T13:37:25;5.53;;;4.03;;
80278;SDS011;70683;52.492;13.416;2023-07-22T13:39:52;7.15;;;4.35;;
80278;SDS011;70683;52.492;13.416;2023-07-22T13:42:19;7.42;;;4.12;;
80278;SDS011;70683;52.492;13.416;2023-07-22T13:44:45;6.22;;;4.50;;
80278;SDS011;70683;52.492;13.416;2023-07-22T13:47:12;6.25;;;4.00;;
80278;SDS011;70683;52.492;13.416;2023-07-22T13:49:39;6.25;;;3.92;;
80278;SDS011;70683;52.492;13.416;2023-07-22T13:52:05;6.17;;;3.62;;
80278;SDS011;70683;52.492;13.416;2023-07-22T13:54:32;5.60;;;3.77;;
80278;SDS011;70683;52.492;13.416;2023-07-22T13:56:59;7.67;;;4.12;;
80278;SDS011;70683;52.492;13.416;2023-07-22T13:59:25;5.95;;;4.50;;
80278;SDS011;70683;52.492;13.416;2023-07-22T14:01:52;9.28;;;4.35;;
80278;SDS011;70683;52.492;13.416;2023-07-22T14:04:19;6.58;;;3.83;;
80278;SDS011;70683;52.492;13.416;2023-07-22T14:06:45;6.70;;;4.10;;
80278;SDS011;70683;52.492;13.416;2023-07-22T14:09:12;5.90;;;3.87;;
80278;SDS011;70683;52.492;13.416;2023-07-22T14:11:38;5.87;;;3.85;;
80278;SDS011;70683;52.492;13.416;2023-07-22T14:14:05;5.08;;;4.12;;
80278;SDS011;70683;52.492;13.416;2023-07-22T14:16:32;5.90;;;3.83;;
80278;SDS011;70683;52.492;13.416;2023-07-22T14:18:59;6.25;;;4.30;;
80278;SDS011;70683;52.492;13.416;2023-07-22T14:21:25;5.70;;;3.52;;
80278;SDS011;70683;52.492;13.416;2023-07-22T14:23:52;5.65;;;3.90;;
80278;SDS011;70683;52.492;13.416;2023-07-22T14:26:20;6.10;;;3.67;;
80278;SDS011;70683;52.492;13.416;2023-07-22T14:28:47;5.00;;;3.85;;
80278;SDS011;70683;52.492;13.416;2023-07-22T14:31:13;7.00;;;4.03;;
80278;SDS011;70683;52.492;13.416;2023-07-22T14:33:40;5.05;;;3.85;;
80278;SDS011;70683;52.492;13.416;2023-07-22T14:36:06;6.08;;;3.58;;
80278;SDS011;70683;52.492;13.416;2023-07-22T14:38:33;5.78;;;3.90;;
80278;SDS011;70683;52.492;13.416;2023-07-22T14:41:00;5.28;;;3.52;;